sensor_id;sensor_type;location;lat;lon;timestamp;P1;durP1;ratioP1;P2;durP2;ratioP2
5042;SDS011;2540;50.928;6.856;2023-04-01T00:00:22;0.93;;;0.50;;
5042;SDS011;2540;50.928;6.856;2023-04-01T00:02:48;2.20;;;0.47;;
5042;SDS011;2540;50.928;6.856;2023-04-01T00:05:13;1.33;;;0.50;;
5042;SDS011;2540;50.928;6.856;2023-04-01T00:07:39;1.03;;;0.50;;
5042;SDS011;2540;50.928;6.856;2023-04-01T00:10:06;0.83;;;0.50;;
5042;SDS011;2540;50.928;6.856;2023-04-01T00:12:32;0.50;;;0.40;;
5042;SDS011;2540;50.928;6.856;2023-04-01T00:14:57;1.30;;;0.50;;
5042;SDS011;2540;50.928;6.856;2023-04-01T00:17:23;2.10;;;0.70;;
5042;SDS011;2540;50.928;6.856;2023-04-01T00:19:48;0.97;;;0.60;;
5042;SDS011;2540;50.928;6.856;2023-04-01T00:22:14;0.87;;;0.50;;
5042;SDS011;2540;50.928;6.856;2023-04-01T00:24:39;0.67;;;0.60;;
5042;SDS011;2540;50.928;6.856;2023-04-01T00:27:04;0.57;;;0.50;;
5042;SDS011;2540;50.928;6.856;2023-04-01T00:29:30;0.70;;;0.40;;
5042;SDS011;2540;50.928;6.856;2023-04-01T00:31:56;0.80;;;0.80;;
5042;SDS011;2540;50.928;6.856;2023-04-01T00:34:22;1.33;;;0.50;;
5042;SDS011;2540;50.928;6.856;2023-04-01T00:36:48;1.17;;;0.47;;
5042;SDS011;2540;50.928;6.856;2023-04-01T00:39:15;2.57;;;0.63;;
5042;SDS011;2540;50.928;6.856;2023-04-01T00:41:40;0.50;;;0.50;;
5042;SDS011;2540;50.928;6.856;2023-04-01T00:44:16;0.90;;;0.40;;
5042;SDS011;2540;50.928;6.856;2023-04-01T00:46:44;0.60;;;0.60;;
5042;SDS011;2540;50.928;6.856;2023-04-01T00:49:09;0.70;;;0.60;;
5042;SDS011;2540;50.928;6.856;2023-04-01T00:51:35;6.53;;;0.70;;
5042;SDS011;2540;50.928;6.856;2023-04-01T00:54:03;2.10;;;0.50;;
5042;SDS011;2540;50.928;6.856;2023-04-01T00:56:36;0.97;;;0.50;;
5042;SDS011;2540;50.928;6.856;2023-04-01T00:59:10;2.10;;;0.60;;
5042;SDS011;2540;50.928;6.856;2023-04-01T01:01:38;0.60;;;0.50;;
5042;SDS011;2540;50.928;6.856;2023-04-01T01:04:04;1.13;;;0.50;;
5042;SDS011;2540;50.928;6.856;2023-04-01T01:12:02;0.60;;;0.50;;
5042;SDS011;2540;50.928;6.856;2023-04-01T01:14:47;0.40;;;0.40;;
5042;SDS011;2540;50.928;6.856;2023-04-01T01:33:48;0.70;;;0.40;;
5042;SDS011;2540;50.928;6.856;2023-04-01T01:36:19;2.30;;;0.50;;
5042;SDS011;2540;50.928;6.856;2023-04-01T01:38:45;0.57;;;0.50;;
5042;SDS011;2540;50.928;6.856;2023-04-01T01:41:13;0.40;;;0.40;;
5042;SDS011;2540;50.928;6.856;2023-04-01T01:43:41;1.33;;;0.50;;
5042;SDS011;2540;50.928;6.856;2023-04-01T01:46:10;0.50;;;0.50;;
5042;SDS011;2540;50.928;6.856;2023-04-01T01:48:37;1.43;;;0.73;;
5042;SDS011;2540;50.928;6.856;2023-04-01T01:51:05;1.93;;;0.53;;
5042;SDS011;2540;50.928;6.856;2023-04-01T01:53:31;0.60;;;0.43;;
5042;SDS011;2540;50.928;6.856;2023-04-01T01:55:56;0.80;;;0.50;;
5042;SDS011;2540;50.928;6.856;2023-04-01T02:00:55;0.83;;;0.40;;
5042;SDS011;2540;50.928;6.856;2023-04-01T02:03:23;0.60;;;0.40;;
5042;SDS011;2540;50.928;6.856;2023-04-01T02:05:50;2.10;;;0.90;;
5042;SDS011;2540;50.928;6.856;2023-04-01T02:08:17;0.90;;;0.40;;
5042;SDS011;2540;50.928;6.856;2023-04-01T02:10:48;1.60;;;0.57;;
5042;SDS011;2540;50.928;6.856;2023-04-01T02:14:04;0.67;;;0.47;;
5042;SDS011;2540;50.928;6.856;2023-04-01T02:16:28;0.50;;;0.50;;
5042;SDS011;2540;50.928;6.856;2023-04-01T02:18:57;0.40;;;0.40;;
5042;SDS011;2540;50.928;6.856;2023-04-01T02:21:24;1.27;;;0.60;;
5042;SDS011;2540;50.928;6.856;2023-04-01T02:23:51;0.40;;;0.40;;
5042;SDS011;2540;50.928;6.856;2023-04-01T02:26:18;2.73;;;0.60;;
5042;SDS011;2540;50.928;6.856;2023-04-01T02:28:43;2.60;;;0.50;;
5042;SDS011;2540;50.928;6.856;2023-04-01T02:31:11;1.13;;;0.90;;
5042;SDS011;2540;50.928;6.856;2023-04-01T02:33:38;0.43;;;0.43;;
5042;SDS011;2540;50.928;6.856;2023-04-01T02:36:04;1.07;;;0.50;;
5042;SDS011;2540;50.928;6.856;2023-04-01T02:38:30;0.43;;;0.43;;
5042;SDS011;2540;50.928;6.856;2023-04-01T02:40:57;0.87;;;0.40;;
5042;SDS011;2540;50.928;6.856;2023-04-01T02:43:24;0.73;;;0.50;;
5042;SDS011;2540;50.928;6.856;2023-04-01T02:45:50;1.07;;;0.40;;
5042;SDS011;2540;50.928;6.856;2023-04-01T02:48:15;0.87;;;0.50;;
5042;SDS011;2540;50.928;6.856;2023-04-01T02:50:40;1.93;;;0.50;;
5042;SDS011;2540;50.928;6.856;2023-04-01T02:53:06;0.57;;;0.40;;
5042;SDS011;2540;50.928;6.856;2023-04-01T02:55:31;1.27;;;0.50;;
5042;SDS011;2540;50.928;6.856;2023-04-01T02:57:57;1.90;;;0.53;;
5042;SDS011;2540;50.928;6.856;2023-04-01T03:00:23;1.27;;;0.50;;
5042;SDS011;2540;50.928;6.856;2023-04-01T03:02:49;0.40;;;0.40;;
5042;SDS011;2540;50.928;6.856;2023-04-01T03:05:14;1.33;;;0.40;;
5042;SDS011;2540;50.928;6.856;2023-04-01T03:07:40;0.87;;;0.70;;
5042;SDS011;2540;50.928;6.856;2023-04-01T03:10:06;0.40;;;0.40;;
5042;SDS011;2540;50.928;6.856;2023-04-01T03:12:32;0.43;;;0.40;;
5042;SDS011;2540;50.928;6.856;2023-04-01T03:14:57;0.40;;;0.40;;
5042;SDS011;2540;50.928;6.856;2023-04-01T03:17:22;1.23;;;0.50;;
5042;SDS011;2540;50.928;6.856;2023-04-01T03:19:47;1.63;;;0.40;;
5042;SDS011;2540;50.928;6.856;2023-04-01T03:22:13;1.80;;;0.40;;
5042;SDS011;2540;50.928;6.856;2023-04-01T03:24:38;1.33;;;0.40;;
5042;SDS011;2540;50.928;6.856;2023-04-01T03:27:04;1.97;;;0.50;;
5042;SDS011;2540;50.928;6.856;2023-04-01T03:29:29;0.80;;;0.50;;
5042;SDS011;2540;50.928;6.856;2023-04-01T03:31:55;0.40;;;0.40;;
5042;SDS011;2540;50.928;6.856;2023-04-01T03:34:22;0.87;;;0.40;;
5042;SDS011;2540;50.928;6.856;2023-04-01T03:36:48;0.40;;;0.40;;
5042;SDS011;2540;50.928;6.856;2023-04-01T03:39:13;1.23;;;0.60;;
5042;SDS011;2540;50.928;6.856;2023-04-01T03:41:38;0.40;;;0.40;;
5042;SDS011;2540;50.928;6.856;2023-04-01T03:44:04;3.33;;;0.60;;
5042;SDS011;2540;50.928;6.856;2023-04-01T03:46:29;1.60;;;0.53;;
5042;SDS011;2540;50.928;6.856;2023-04-01T03:48:54;0.50;;;0.40;;
5042;SDS011;2540;50.928;6.856;2023-04-01T03:51:20;0.77;;;0.40;;
5042;SDS011;2540;50.928;6.856;2023-04-01T03:53:45;2.17;;;0.43;;
5042;SDS011;2540;50.928;6.856;2023-04-01T03:56:11;1.63;;;0.60;;
5042;SDS011;2540;50.928;6.856;2023-04-01T03:58:36;0.60;;;0.60;;
5042;SDS011;2540;50.928;6.856;2023-04-01T04:01:02;0.70;;;0.40;;
5042;SDS011;2540;50.928;6.856;2023-04-01T04:03:27;0.40;;;0.40;;
5042;SDS011;2540;50.928;6.856;2023-04-01T04:05:53;1.27;;;0.47;;
5042;SDS011;2540;50.928;6.856;2023-04-01T04:08:18;3.77;;;0.87;;
5042;SDS011;2540;50.928;6.856;2023-04-01T04:10:43;1.57;;;0.60;;
5042;SDS011;2540;50.928;6.856;2023-04-01T04:13:09;1.60;;;0.50;;
5042;SDS011;2540;50.928;6.856;2023-04-01T04:15:34;0.50;;;0.50;;
5042;SDS011;2540;50.928;6.856;2023-04-01T04:18:00;0.60;;;0.50;;
5042;SDS011;2540;50.928;6.856;2023-04-01T04:20:25;0.60;;;0.40;;
5042;SDS011;2540;50.928;6.856;2023-04-01T04:22:50;3.57;;;0.50;;
5042;SDS011;2540;50.928;6.856;2023-04-01T04:25:16;0.40;;;0.40;;
5042;SDS011;2540;50.928;6.856;2023-04-01T04:27:41;0.43;;;0.40;;
5042;SDS011;2540;50.928;6.856;2023-04-01T04:30:06;0.57;;;0.50;;
5042;SDS011;2540;50.928;6.856;2023-04-01T04:32:35;0.87;;;0.50;;
5042;SDS011;2540;50.928;6.856;2023-04-01T04:35:04;2.37;;;0.60;;
5042;SDS011;2540;50.928;6.856;2023-04-01T04:37:31;2.40;;;0.60;;
5042;SDS011;2540;50.928;6.856;2023-04-01T04:39:56;0.43;;;0.43;;
5042;SDS011;2540;50.928;6.856;2023-04-01T04:42:21;2.83;;;0.50;;
5042;SDS011;2540;50.928;6.856;2023-04-01T04:44:47;3.07;;;0.60;;
5042;SDS011;2540;50.928;6.856;2023-04-01T04:47:12;0.40;;;0.40;;
5042;SDS011;2540;50.928;6.856;2023-04-01T04:49:37;4.00;;;0.50;;
5042;SDS011;2540;50.928;6.856;2023-04-01T04:52:03;5.23;;;0.87;;
5042;SDS011;2540;50.928;6.856;2023-04-01T04:54:29;1.37;;;0.50;;
5042;SDS011;2540;50.928;6.856;2023-04-01T04:56:54;1.03;;;0.50;;
5042;SDS011;2540;50.928;6.856;2023-04-01T04:59:19;0.97;;;0.40;;
5042;SDS011;2540;50.928;6.856;2023-04-01T05:01:45;1.37;;;0.53;;
5042;SDS011;2540;50.928;6.856;2023-04-01T05:04:10;3.30;;;0.50;;
5042;SDS011;2540;50.928;6.856;2023-04-01T05:06:35;0.50;;;0.50;;
5042;SDS011;2540;50.928;6.856;2023-04-01T05:09:00;1.90;;;0.50;;
5042;SDS011;2540;50.928;6.856;2023-04-01T05:11:26;1.33;;;0.40;;
5042;SDS011;2540;50.928;6.856;2023-04-01T05:13:52;2.50;;;0.50;;
5042;SDS011;2540;50.928;6.856;2023-04-01T05:16:18;0.60;;;0.50;;
5042;SDS011;2540;50.928;6.856;2023-04-01T05:18:44;11.63;;;0.50;;
5042;SDS011;2540;50.928;6.856;2023-04-01T05:21:11;0.50;;;0.50;;
5042;SDS011;2540;50.928;6.856;2023-04-01T05:23:38;0.50;;;0.50;;
5042;SDS011;2540;50.928;6.856;2023-04-01T05:26:04;1.20;;;0.60;;
5042;SDS011;2540;50.928;6.856;2023-04-01T05:28:30;1.23;;;0.50;;
5042;SDS011;2540;50.928;6.856;2023-04-01T05:30:57;0.50;;;0.50;;
5042;SDS011;2540;50.928;6.856;2023-04-01T05:33:25;3.60;;;0.50;;
5042;SDS011;2540;50.928;6.856;2023-04-01T05:35:50;1.37;;;0.70;;
5042;SDS011;2540;50.928;6.856;2023-04-01T05:38:15;0.50;;;0.50;;
5042;SDS011;2540;50.928;6.856;2023-04-01T05:40:41;0.80;;;0.60;;
5042;SDS011;2540;50.928;6.856;2023-04-01T05:43:06;3.17;;;0.60;;
5042;SDS011;2540;50.928;6.856;2023-04-01T05:45:31;4.20;;;0.67;;
5042;SDS011;2540;50.928;6.856;2023-04-01T05:47:57;1.63;;;0.57;;
5042;SDS011;2540;50.928;6.856;2023-04-01T05:50:22;1.83;;;0.60;;
5042;SDS011;2540;50.928;6.856;2023-04-01T05:52:47;0.83;;;0.50;;
5042;SDS011;2540;50.928;6.856;2023-04-01T05:55:13;0.50;;;0.50;;
5042;SDS011;2540;50.928;6.856;2023-04-01T05:57:38;3.73;;;0.60;;
5042;SDS011;2540;50.928;6.856;2023-04-01T06:00:03;1.23;;;0.60;;
5042;SDS011;2540;50.928;6.856;2023-04-01T06:02:29;0.50;;;0.50;;
5042;SDS011;2540;50.928;6.856;2023-04-01T06:05:02;1.60;;;0.80;;
5042;SDS011;2540;50.928;6.856;2023-04-01T06:07:34;0.60;;;0.60;;
5042;SDS011;2540;50.928;6.856;2023-04-01T06:10:00;0.50;;;0.50;;
5042;SDS011;2540;50.928;6.856;2023-04-01T06:15:43;1.70;;;0.80;;
5042;SDS011;2540;50.928;6.856;2023-04-01T06:18:38;0.60;;;0.60;;
5042;SDS011;2540;50.928;6.856;2023-04-01T06:21:11;7.93;;;1.27;;
5042;SDS011;2540;50.928;6.856;2023-04-01T06:29:46;3.30;;;0.80;;
5042;SDS011;2540;50.928;6.856;2023-04-01T06:32:22;0.73;;;0.73;;
5042;SDS011;2540;50.928;6.856;2023-04-01T06:35:11;0.90;;;0.87;;
5042;SDS011;2540;50.928;6.856;2023-04-01T06:37:52;1.10;;;1.00;;
5042;SDS011;2540;50.928;6.856;2023-04-01T06:41:12;0.60;;;0.60;;
5042;SDS011;2540;50.928;6.856;2023-04-01T06:46:19;2.03;;;0.90;;
5042;SDS011;2540;50.928;6.856;2023-04-01T06:49:20;0.90;;;0.90;;
5042;SDS011;2540;50.928;6.856;2023-04-01T06:54:49;0.70;;;0.70;;
5042;SDS011;2540;50.928;6.856;2023-04-01T06:57:47;1.77;;;1.07;;
5042;SDS011;2540;50.928;6.856;2023-04-01T07:00:26;1.87;;;0.90;;
5042;SDS011;2540;50.928;6.856;2023-04-01T07:02:57;1.00;;;0.90;;
5042;SDS011;2540;50.928;6.856;2023-04-01T07:05:45;0.90;;;0.90;;
5042;SDS011;2540;50.928;6.856;2023-04-01T07:08:12;2.93;;;1.23;;
5042;SDS011;2540;50.928;6.856;2023-04-01T07:14:04;2.77;;;1.40;;
5042;SDS011;2540;50.928;6.856;2023-04-01T07:19:00;4.73;;;1.10;;
5042;SDS011;2540;50.928;6.856;2023-04-01T07:21:33;4.13;;;1.07;;
5042;SDS011;2540;50.928;6.856;2023-04-01T07:24:04;0.83;;;0.83;;
5042;SDS011;2540;50.928;6.856;2023-04-01T07:26:32;3.73;;;1.10;;
5042;SDS011;2540;50.928;6.856;2023-04-01T07:28:57;1.20;;;0.97;;
5042;SDS011;2540;50.928;6.856;2023-04-01T07:34:17;1.43;;;0.93;;
5042;SDS011;2540;50.928;6.856;2023-04-01T07:36:48;11.00;;;1.60;;
5042;SDS011;2540;50.928;6.856;2023-04-01T07:45:11;3.00;;;1.00;;
5042;SDS011;2540;50.928;6.856;2023-04-01T07:50:38;0.90;;;0.90;;
5042;SDS011;2540;50.928;6.856;2023-04-01T08:01:13;2.40;;;1.00;;
5042;SDS011;2540;50.928;6.856;2023-04-01T08:06:42;2.80;;;0.77;;
5042;SDS011;2540;50.928;6.856;2023-04-01T08:09:25;2.03;;;0.80;;
5042;SDS011;2540;50.928;6.856;2023-04-01T08:19:40;0.70;;;0.70;;
5042;SDS011;2540;50.928;6.856;2023-04-01T08:22:36;3.47;;;0.70;;
5042;SDS011;2540;50.928;6.856;2023-04-01T08:25:05;1.07;;;0.50;;
5042;SDS011;2540;50.928;6.856;2023-04-01T08:30:20;3.33;;;1.50;;
5042;SDS011;2540;50.928;6.856;2023-04-01T08:33:12;1.80;;;0.80;;
5042;SDS011;2540;50.928;6.856;2023-04-01T08:35:56;1.70;;;0.70;;
5042;SDS011;2540;50.928;6.856;2023-04-01T08:38:26;0.50;;;0.50;;
5042;SDS011;2540;50.928;6.856;2023-04-01T08:55:41;4.63;;;0.90;;
5042;SDS011;2540;50.928;6.856;2023-04-01T09:07:23;2.73;;;0.70;;
5042;SDS011;2540;50.928;6.856;2023-04-01T09:38:35;0.60;;;0.60;;
5042;SDS011;2540;50.928;6.856;2023-04-01T09:46:36;0.77;;;0.70;;
5042;SDS011;2540;50.928;6.856;2023-04-01T09:54:44;0.70;;;0.70;;
5042;SDS011;2540;50.928;6.856;2023-04-01T09:57:39;5.37;;;1.40;;
5042;SDS011;2540;50.928;6.856;2023-04-01T10:00:29;1.57;;;0.60;;
5042;SDS011;2540;50.928;6.856;2023-04-01T10:06:18;0.60;;;0.60;;
5042;SDS011;2540;50.928;6.856;2023-04-01T10:17:45;1.03;;;0.90;;
5042;SDS011;2540;50.928;6.856;2023-04-01T10:23:11;0.70;;;0.70;;
5042;SDS011;2540;50.928;6.856;2023-04-01T10:28:30;0.80;;;0.80;;
5042;SDS011;2540;50.928;6.856;2023-04-01T10:31:18;2.87;;;1.60;;
5042;SDS011;2540;50.928;6.856;2023-04-01T10:34:01;1.30;;;1.20;;
5042;SDS011;2540;50.928;6.856;2023-04-01T10:39:22;3.53;;;1.40;;
5042;SDS011;2540;50.928;6.856;2023-04-01T10:50:39;0.80;;;0.80;;
5042;SDS011;2540;50.928;6.856;2023-04-01T11:07:22;2.43;;;0.80;;
5042;SDS011;2540;50.928;6.856;2023-04-01T11:13:42;0.70;;;0.70;;
5042;SDS011;2540;50.928;6.856;2023-04-01T11:43:21;2.30;;;0.90;;
5042;SDS011;2540;50.928;6.856;2023-04-01T11:48:44;1.17;;;1.07;;
5042;SDS011;2540;50.928;6.856;2023-04-01T11:56:59;1.10;;;1.00;;
5042;SDS011;2540;50.928;6.856;2023-04-01T11:59:51;0.80;;;0.80;;
5042;SDS011;2540;50.928;6.856;2023-04-01T12:13:32;1.00;;;1.00;;
5042;SDS011;2540;50.928;6.856;2023-04-01T12:35:07;0.90;;;0.90;;
5042;SDS011;2540;50.928;6.856;2023-04-01T12:37:50;0.70;;;0.70;;
5042;SDS011;2540;50.928;6.856;2023-04-01T12:40:38;1.43;;;0.80;;
5042;SDS011;2540;50.928;6.856;2023-04-01T13:01:36;0.80;;;0.80;;
5042;SDS011;2540;50.928;6.856;2023-04-01T13:04:17;1.03;;;0.93;;
5042;SDS011;2540;50.928;6.856;2023-04-01T13:07:14;1.00;;;1.00;;
5042;SDS011;2540;50.928;6.856;2023-04-01T13:21:08;1.00;;;1.00;;
5042;SDS011;2540;50.928;6.856;2023-04-01T13:26:36;0.90;;;0.90;;
5042;SDS011;2540;50.928;6.856;2023-04-01T13:29:04;1.13;;;1.03;;
5042;SDS011;2540;50.928;6.856;2023-04-01T13:34:28;6.67;;;2.40;;
5042;SDS011;2540;50.928;6.856;2023-04-01T13:44:48;1.63;;;1.53;;
5042;SDS011;2540;50.928;6.856;2023-04-01T13:52:47;1.77;;;1.67;;
5042;SDS011;2540;50.928;6.856;2023-04-01T13:58:34;1.60;;;1.50;;
5042;SDS011;2540;50.928;6.856;2023-04-01T14:07:16;1.87;;;1.77;;
5042;SDS011;2540;50.928;6.856;2023-04-01T14:12:39;1.53;;;1.43;;
5042;SDS011;2540;50.928;6.856;2023-04-01T14:21:07;1.77;;;1.67;;
5042;SDS011;2540;50.928;6.856;2023-04-01T14:31:47;5.60;;;1.50;;
5042;SDS011;2540;50.928;6.856;2023-04-01T14:37:11;1.73;;;1.63;;
5042;SDS011;2540;50.928;6.856;2023-04-01T14:45:45;2.03;;;1.80;;
5042;SDS011;2540;50.928;6.856;2023-04-01T14:51:20;1.90;;;1.20;;
5042;SDS011;2540;50.928;6.856;2023-04-01T14:53:54;1.60;;;1.50;;
5042;SDS011;2540;50.928;6.856;2023-04-01T14:59:08;2.43;;;1.50;;
5042;SDS011;2540;50.928;6.856;2023-04-01T15:01:50;2.00;;;1.90;;
5042;SDS011;2540;50.928;6.856;2023-04-01T15:15:51;2.63;;;1.50;;
5042;SDS011;2540;50.928;6.856;2023-04-01T15:18:30;2.33;;;2.13;;
5042;SDS011;2540;50.928;6.856;2023-04-01T15:21:18;2.17;;;1.97;;
5042;SDS011;2540;50.928;6.856;2023-04-01T15:24:06;2.30;;;2.10;;
5042;SDS011;2540;50.928;6.856;2023-04-01T15:32:19;2.53;;;2.30;;
5042;SDS011;2540;50.928;6.856;2023-04-01T15:38:02;2.30;;;2.10;;
5042;SDS011;2540;50.928;6.856;2023-04-01T15:40:31;3.00;;;2.50;;
5042;SDS011;2540;50.928;6.856;2023-04-01T15:51:26;2.47;;;2.27;;
5042;SDS011;2540;50.928;6.856;2023-04-01T15:54:06;3.10;;;2.00;;
5042;SDS011;2540;50.928;6.856;2023-04-01T16:01:45;2.40;;;2.20;;
5042;SDS011;2540;50.928;6.856;2023-04-01T16:07:03;2.67;;;2.30;;
5042;SDS011;2540;50.928;6.856;2023-04-01T16:12:49;2.40;;;2.20;;
5042;SDS011;2540;50.928;6.856;2023-04-01T16:15:37;2.97;;;2.03;;
5042;SDS011;2540;50.928;6.856;2023-04-01T16:18:11;2.20;;;2.00;;
5042;SDS011;2540;50.928;6.856;2023-04-01T16:21:02;2.43;;;2.20;;
5042;SDS011;2540;50.928;6.856;2023-04-01T16:26:25;2.80;;;2.20;;
5042;SDS011;2540;50.928;6.856;2023-04-01T16:29:03;2.20;;;2.00;;
5042;SDS011;2540;50.928;6.856;2023-04-01T16:31:35;2.50;;;2.30;;
5042;SDS011;2540;50.928;6.856;2023-04-01T16:34:10;1.97;;;1.87;;
5042;SDS011;2540;50.928;6.856;2023-04-01T16:36:49;2.80;;;2.03;;
5042;SDS011;2540;50.928;6.856;2023-04-01T16:39:28;3.67;;;2.40;;
5042;SDS011;2540;50.928;6.856;2023-04-01T16:44:55;2.07;;;1.87;;
5042;SDS011;2540;50.928;6.856;2023-04-01T16:47:20;3.50;;;1.87;;
5042;SDS011;2540;50.928;6.856;2023-04-01T16:52:53;2.37;;;2.00;;
5042;SDS011;2540;50.928;6.856;2023-04-01T16:55:36;2.40;;;2.20;;
5042;SDS011;2540;50.928;6.856;2023-04-01T16:58:06;4.13;;;2.70;;
5042;SDS011;2540;50.928;6.856;2023-04-01T17:00:47;2.20;;;2.00;;
5042;SDS011;2540;50.928;6.856;2023-04-01T17:03:18;3.83;;;1.70;;
5042;SDS011;2540;50.928;6.856;2023-04-01T17:08:50;3.27;;;1.90;;
5042;SDS011;2540;50.928;6.856;2023-04-01T17:11:56;1.80;;;1.70;;
5042;SDS011;2540;50.928;6.856;2023-04-01T17:15:09;1.73;;;1.63;;
5042;SDS011;2540;50.928;6.856;2023-04-01T17:28:14;3.43;;;1.73;;
5042;SDS011;2540;50.928;6.856;2023-04-01T17:42:22;2.97;;;2.53;;
5042;SDS011;2540;50.928;6.856;2023-04-01T17:56:07;2.53;;;2.10;;
5042;SDS011;2540;50.928;6.856;2023-04-01T18:10:13;3.33;;;2.80;;
5042;SDS011;2540;50.928;6.856;2023-04-01T18:15:43;2.73;;;2.53;;
5042;SDS011;2540;50.928;6.856;2023-04-01T18:21:36;4.37;;;2.33;;
5042;SDS011;2540;50.928;6.856;2023-04-01T18:24:17;3.43;;;2.60;;
5042;SDS011;2540;50.928;6.856;2023-04-01T18:27:04;3.50;;;3.20;;
5042;SDS011;2540;50.928;6.856;2023-04-01T18:29:35;3.23;;;2.93;;
5042;SDS011;2540;50.928;6.856;2023-04-01T18:32:09;2.80;;;2.50;;
5042;SDS011;2540;50.928;6.856;2023-04-01T18:34:43;3.27;;;2.80;;
5042;SDS011;2540;50.928;6.856;2023-04-01T18:37:32;3.50;;;3.20;;
5042;SDS011;2540;50.928;6.856;2023-04-01T18:42:58;3.03;;;2.70;;
5042;SDS011;2540;50.928;6.856;2023-04-01T18:45:41;2.63;;;2.43;;
5042;SDS011;2540;50.928;6.856;2023-04-01T18:51:20;3.90;;;2.70;;
5042;SDS011;2540;50.928;6.856;2023-04-01T18:53:56;4.30;;;2.57;;
5042;SDS011;2540;50.928;6.856;2023-04-01T18:56:29;3.07;;;2.83;;
5042;SDS011;2540;50.928;6.856;2023-04-01T18:59:02;2.60;;;2.40;;
5042;SDS011;2540;50.928;6.856;2023-04-01T19:01:42;2.20;;;2.10;;
5042;SDS011;2540;50.928;6.856;2023-04-01T19:05:02;2.20;;;2.10;;
5042;SDS011;2540;50.928;6.856;2023-04-01T19:10:16;4.50;;;2.80;;
5042;SDS011;2540;50.928;6.856;2023-04-01T19:19:20;3.63;;;2.40;;
5042;SDS011;2540;50.928;6.856;2023-04-01T19:38:59;3.73;;;3.40;;
5042;SDS011;2540;50.928;6.856;2023-04-01T19:42:05;3.70;;;3.23;;
5042;SDS011;2540;50.928;6.856;2023-04-01T19:52:41;4.43;;;3.50;;
5042;SDS011;2540;50.928;6.856;2023-04-01T20:00:37;4.43;;;3.73;;
5042;SDS011;2540;50.928;6.856;2023-04-01T20:03:17;4.33;;;3.33;;
5042;SDS011;2540;50.928;6.856;2023-04-01T20:19:35;3.83;;;3.30;;
5042;SDS011;2540;50.928;6.856;2023-04-01T20:22:04;5.30;;;3.87;;
5042;SDS011;2540;50.928;6.856;2023-04-01T20:24:35;7.97;;;3.90;;
5042;SDS011;2540;50.928;6.856;2023-04-01T20:29:39;5.10;;;4.03;;
5042;SDS011;2540;50.928;6.856;2023-04-01T20:35:07;5.20;;;4.10;;
5042;SDS011;2540;50.928;6.856;2023-04-01T20:40:17;4.20;;;3.80;;
5042;SDS011;2540;50.928;6.856;2023-04-01T20:45:56;5.17;;;3.67;;
5042;SDS011;2540;50.928;6.856;2023-04-01T20:48:27;3.47;;;3.17;;
5042;SDS011;2540;50.928;6.856;2023-04-01T20:54:21;4.13;;;3.47;;
5042;SDS011;2540;50.928;6.856;2023-04-01T20:56:41;4.83;;;3.30;;
5042;SDS011;2540;50.928;6.856;2023-04-01T21:18:43;3.67;;;2.03;;
5042;SDS011;2540;50.928;6.856;2023-04-01T21:26:42;4.53;;;1.83;;
5042;SDS011;2540;50.928;6.856;2023-04-01T21:32:12;2.33;;;2.13;;
5042;SDS011;2540;50.928;6.856;2023-04-01T21:34:51;4.50;;;2.20;;
5042;SDS011;2540;50.928;6.856;2023-04-01T21:45:57;2.33;;;2.13;;
5042;SDS011;2540;50.928;6.856;2023-04-01T21:51:25;3.73;;;3.30;;
5042;SDS011;2540;50.928;6.856;2023-04-01T21:56:47;3.00;;;2.60;;
5042;SDS011;2540;50.928;6.856;2023-04-01T22:02:56;3.17;;;2.87;;
5042;SDS011;2540;50.928;6.856;2023-04-01T22:05:47;4.33;;;2.63;;
5042;SDS011;2540;50.928;6.856;2023-04-01T22:19:09;3.17;;;2.80;;
5042;SDS011;2540;50.928;6.856;2023-04-01T22:22:02;3.57;;;2.93;;
5042;SDS011;2540;50.928;6.856;2023-04-01T22:24:54;3.40;;;2.90;;
5042;SDS011;2540;50.928;6.856;2023-04-01T22:27:23;5.87;;;2.60;;
5042;SDS011;2540;50.928;6.856;2023-04-01T22:30:26;4.10;;;3.33;;
5042;SDS011;2540;50.928;6.856;2023-04-01T22:32:54;3.37;;;2.90;;
5042;SDS011;2540;50.928;6.856;2023-04-01T22:38:09;5.27;;;3.10;;
5042;SDS011;2540;50.928;6.856;2023-04-01T22:43:08;4.47;;;3.80;;
5042;SDS011;2540;50.928;6.856;2023-04-01T22:51:23;5.70;;;4.93;;
5042;SDS011;2540;50.928;6.856;2023-04-01T22:54:05;4.90;;;4.30;;
5042;SDS011;2540;50.928;6.856;2023-04-01T22:56:49;4.50;;;4.10;;
5042;SDS011;2540;50.928;6.856;2023-04-01T22:59:19;4.83;;;4.30;;
5042;SDS011;2540;50.928;6.856;2023-04-01T23:01:59;4.83;;;4.00;;
5042;SDS011;2540;50.928;6.856;2023-04-01T23:04:29;4.27;;;3.90;;
5042;SDS011;2540;50.928;6.856;2023-04-01T23:07:01;4.83;;;4.40;;
5042;SDS011;2540;50.928;6.856;2023-04-01T23:09:30;5.27;;;4.77;;
5042;SDS011;2540;50.928;6.856;2023-04-01T23:14:56;6.50;;;5.33;;
5042;SDS011;2540;50.928;6.856;2023-04-01T23:28:43;8.27;;;5.60;;
5042;SDS011;2540;50.928;6.856;2023-04-01T23:31:26;6.70;;;4.97;;
5042;SDS011;2540;50.928;6.856;2023-04-01T23:34:17;6.97;;;5.37;;
5042;SDS011;2540;50.928;6.856;2023-04-01T23:36:50;6.80;;;5.33;;
5042;SDS011;2540;50.928;6.856;2023-04-01T23:41:47;6.63;;;5.67;;
5042;SDS011;2540;50.928;6.856;2023-04-01T23:44:13;6.50;;;5.10;;
5042;SDS011;2540;50.928;6.856;2023-04-01T23:46:39;8.53;;;5.20;;
5042;SDS011;2540;50.928;6.856;2023-04-01T23:49:06;6.30;;;5.60;;
5042;SDS011;2540;50.928;6.856;2023-04-01T23:51:38;5.57;;;5.00;;
5042;SDS011;2540;50.928;6.856;2023-04-01T23:54:13;6.33;;;5.33;;
5042;SDS011;2540;50.928;6.856;2023-04-01T23:56:51;7.23;;;5.70;;
5042;SDS011;2540;50.928;6.856;2023-04-01T23:59:31;6.53;;;5.53;;
